Portada
METAR-TAF:

METAR-TAF

Aeroports :

Tsingtao, Xina

latitud: 36-04N, longitud: 120-20E, altitud: 77 m

Observació

L'informe es va fer fa 47 minuts, a les 20:00 UTC
Vent 6 kt del Sud/Sud-Est
Temperatura 6°C
Humitat 81%
Pressió 1019 hPa
Visibilitat 10 km o més
sense núvols per sota de 1500 mi sense presència de cumulonimbus.

METAR: ZSQD 302000Z 15003MPS CAVOK 06/03 Q1019 NOSIG

Hora: 04:47 (20:47 UTC)

Pronòstic

L'informe es va fer fa 5 hores i 40 minuts, a les 15:07 UTC
Pronòstic vàlid del 30 a les 18 UTC al 31 a les 18 UTC
Vent 8 kt del Sud
Visibilitat: 6000 m
Cel ennuvolat a una alçada de 3000 ft

TAF: ZSQD 301507Z 3018/3118 19004MPS 6000 BKN030 TX16/3106Z TN04/3021Z

Observacions i pronòstics meteorològics de més de 4000 aeroports (METAR i TAF).

Les estacions disponibles són els punts grocs i vermells al mapa.

Posi el ratolí al punt desitjat per veure el nom de l'estació.

Feu clic per veure les observacions i els pronòstics meteorològics.

Per canviar el mapa: feu clic els botons verds amb una creu de color negre per apropar; al botó verd amb un guió per allunyar la imatge; o en les fletxes verdes per a mapes adjacents.


METAR-TAF: